createdAt,value
2018-06-16T00:02:52.677Z,16.41
2018-06-16T00:07:47.265Z,16.15
2018-06-16T00:12:41.832Z,15.88
2018-06-16T00:17:36.383Z,15.78
2018-06-16T00:22:30.927Z,15.87
2018-06-16T00:27:25.526Z,15.90
2018-06-16T00:32:20.063Z,15.81
2018-06-16T00:37:14.612Z,15.77
2018-06-16T00:42:09.315Z,15.76
2018-06-16T00:47:03.966Z,15.57
2018-06-16T00:51:58.493Z,15.53
2018-06-16T00:57:09.606Z,15.49
2018-06-16T01:02:04.341Z,15.56
2018-06-16T01:06:59.169Z,15.29
2018-06-16T01:11:53.796Z,15.24
2018-06-16T01:16:48.411Z,15.28
2018-06-16T01:21:43.955Z,15.33
2018-06-16T01:26:38.526Z,15.48
2018-06-16T01:31:33.081Z,15.28
2018-06-16T01:36:27.653Z,15.05
2018-06-16T01:41:22.175Z,15.05
2018-06-16T01:46:16.725Z,15.00
2018-06-16T01:51:11.390Z,14.82
2018-06-16T01:56:05.968Z,14.84
2018-06-16T02:01:00.508Z,14.96
2018-06-16T02:05:55.166Z,14.77
2018-06-16T02:10:49.814Z,14.73
2018-06-16T02:15:44.414Z,14.78
2018-06-16T02:20:39.018Z,14.91
2018-06-16T02:25:33.601Z,14.52
2018-06-16T02:30:28.205Z,14.32
2018-06-16T02:35:22.788Z,14.71
2018-06-16T02:40:17.390Z,14.73
2018-06-16T02:45:11.966Z,14.74
2018-06-16T02:50:07.345Z,14.59
2018-06-16T02:55:01.910Z,14.56
2018-06-16T02:59:56.457Z,14.32
2018-06-16T03:04:51.049Z,14.14
2018-06-16T03:09:45.649Z,14.22
2018-06-16T03:14:40.195Z,14.36
2018-06-16T03:19:34.722Z,14.36
2018-06-16T03:24:29.243Z,14.27
2018-06-16T03:29:23.854Z,14.15
2018-06-16T03:34:18.469Z,14.19
2018-06-16T03:39:13.074Z,14.12
2018-06-16T03:44:07.351Z,14.02
2018-06-16T03:49:02.014Z,14.21
2018-06-16T03:53:56.535Z,14.07
2018-06-16T03:58:51.146Z,14.27
2018-06-16T04:03:45.791Z,14.19
2018-06-16T04:08:40.586Z,14.10
2018-06-16T04:13:35.274Z,14.15
2018-06-16T04:18:29.873Z,14.29
2018-06-16T04:23:24.506Z,14.41
2018-06-16T04:28:19.118Z,14.57
2018-06-16T04:33:13.711Z,14.94
2018-06-16T04:38:08.271Z,15.29
2018-06-16T04:43:02.900Z,15.79
2018-06-16T04:47:57.509Z,16.33
2018-06-16T04:52:52.155Z,16.97
2018-06-16T04:57:46.749Z,17.31
2018-06-16T05:02:41.354Z,17.83
2018-06-16T05:07:35.951Z,18.32
2018-06-16T05:12:30.566Z,19.01
2018-06-16T05:17:25.198Z,19.24
2018-06-16T05:22:19.803Z,19.67
2018-06-16T05:27:14.464Z,19.97
2018-06-16T05:32:09.102Z,20.30
2018-06-16T05:37:03.767Z,20.43
2018-06-16T05:41:58.487Z,20.44
2018-06-16T05:46:53.116Z,20.32
2018-06-16T05:51:47.715Z,20.16
2018-06-16T05:56:42.378Z,20.13
2018-06-16T06:01:36.988Z,19.88
2018-06-16T06:06:31.627Z,19.69
2018-06-16T06:11:26.284Z,19.27
2018-06-16T06:16:20.949Z,19.11
2018-06-16T06:21:15.539Z,19.21
2018-06-16T06:26:10.157Z,19.25
2018-06-16T06:31:04.826Z,19.23
2018-06-16T06:35:59.506Z,19.42
2018-06-16T06:40:54.150Z,19.41
2018-06-16T06:45:48.815Z,19.57
2018-06-16T06:50:43.423Z,20.08
2018-06-16T06:55:38.363Z,20.59
2018-06-16T07:00:32.963Z,20.46
2018-06-16T07:05:27.588Z,21.01
2018-06-16T07:10:22.223Z,21.18
2018-06-16T07:15:16.874Z,21.82
2018-06-16T07:20:11.438Z,22.20
2018-06-16T07:25:06.083Z,22.51
2018-06-16T07:30:00.714Z,22.55
2018-06-16T07:34:56.058Z,22.32
2018-06-16T07:39:50.651Z,22.17
2018-06-16T07:44:45.311Z,22.76
2018-06-16T07:49:39.935Z,22.42
2018-06-16T07:54:34.542Z,22.89
2018-06-16T07:59:29.190Z,23.50
2018-06-16T08:04:23.856Z,23.41
2018-06-16T08:09:18.521Z,23.76
2018-06-16T08:14:13.119Z,23.85
2018-06-16T08:19:07.767Z,24.25
2018-06-16T08:24:02.133Z,24.37
2018-06-16T08:28:56.910Z,23.97
2018-06-16T08:33:51.505Z,24.66
2018-06-16T08:38:46.152Z,24.48
2018-06-16T08:43:40.831Z,24.58
2018-06-16T08:48:35.495Z,24.71
2018-06-16T08:53:30.145Z,24.77
2018-06-16T08:58:24.829Z,25.45
2018-06-16T09:03:19.480Z,25.52
2018-06-16T09:08:14.090Z,25.51
2018-06-16T09:13:08.726Z,25.44
2018-06-16T09:18:03.263Z,25.11
2018-06-16T09:22:57.889Z,24.95
2018-06-16T09:27:52.620Z,25.94
2018-06-16T09:32:47.165Z,26.52
2018-06-16T09:37:41.783Z,25.99
2018-06-16T09:42:36.397Z,26.03
2018-06-16T09:47:31.004Z,26.18
2018-06-16T09:52:25.366Z,25.97
2018-06-16T09:57:20.019Z,25.87
2018-06-16T10:02:14.678Z,26.51
2018-06-16T10:07:09.354Z,26.58
2018-06-16T10:12:04.015Z,27.04
2018-06-16T10:16:58.671Z,27.17
2018-06-16T10:21:53.304Z,26.32
2018-06-16T10:26:47.925Z,26.25
2018-06-16T10:31:42.538Z,26.65
2018-06-16T10:36:37.180Z,26.30
2018-06-16T10:41:31.795Z,26.80
2018-06-16T10:46:26.499Z,26.79
2018-06-16T10:51:21.161Z,26.63
2018-06-16T10:56:15.784Z,26.30
2018-06-16T11:01:10.359Z,26.30
2018-06-16T11:06:04.961Z,26.39
2018-06-16T11:10:59.598Z,26.82
2018-06-16T11:15:54.264Z,26.99
2018-06-16T11:20:49.042Z,27.26
2018-06-16T11:25:43.639Z,26.76
2018-06-16T11:30:38.282Z,26.67
2018-06-16T11:35:32.932Z,26.97
2018-06-16T11:40:27.531Z,26.93
2018-06-16T11:45:22.423Z,27.27
2018-06-16T11:50:17.051Z,27.24
2018-06-16T11:55:11.711Z,27.37
2018-06-16T12:00:06.455Z,27.22
2018-06-16T12:05:01.078Z,27.37
2018-06-16T12:09:55.691Z,27.54
2018-06-16T12:14:50.387Z,27.22
2018-06-16T12:19:44.988Z,27.15
2018-06-16T12:24:39.539Z,27.22
2018-06-16T12:29:34.150Z,26.97
2018-06-16T12:34:28.782Z,26.84
2018-06-16T12:39:23.375Z,26.69
2018-06-16T12:44:18.018Z,26.58
2018-06-16T12:49:12.667Z,27.09
2018-06-16T12:54:07.593Z,26.87
2018-06-16T12:59:02.211Z,27.04
2018-06-16T13:03:56.778Z,27.18
2018-06-16T13:08:51.306Z,26.75
2018-06-16T13:13:45.940Z,26.45
2018-06-16T13:18:40.495Z,26.53
2018-06-16T13:23:35.114Z,26.70
2018-06-16T13:28:29.714Z,26.91
2018-06-16T13:33:24.286Z,26.82
2018-06-16T13:38:18.927Z,26.53
2018-06-16T13:43:13.635Z,26.62
2018-06-16T13:48:08.135Z,26.72
2018-06-16T13:53:02.675Z,26.72
2018-06-16T13:57:57.389Z,26.48
2018-06-16T14:02:52.013Z,26.13
2018-06-16T14:07:46.650Z,26.33
2018-06-16T14:12:41.250Z,26.41
2018-06-16T14:17:35.841Z,27.03
2018-06-16T14:22:30.422Z,27.28
2018-06-16T14:27:25.003Z,27.42
2018-06-16T14:32:19.697Z,27.30
2018-06-16T14:37:14.324Z,27.33
2018-06-16T14:42:08.991Z,27.13
2018-06-16T14:47:03.599Z,27.05
2018-06-16T14:51:58.086Z,27.20
2018-06-16T14:56:52.669Z,27.09
2018-06-16T15:01:47.335Z,26.82
2018-06-16T15:06:41.943Z,26.82
2018-06-16T15:11:36.764Z,26.83
2018-06-16T15:16:31.350Z,26.85
2018-06-16T15:21:27.592Z,26.86
2018-06-16T15:26:22.196Z,26.77
2018-06-16T15:31:16.803Z,26.59
2018-06-16T15:36:11.374Z,26.63
2018-06-16T15:41:06.003Z,26.56
2018-06-16T15:46:00.651Z,26.44
2018-06-16T15:50:55.350Z,26.42
2018-06-16T15:55:49.591Z,26.43
2018-06-16T16:00:44.195Z,26.44
2018-06-16T16:05:38.757Z,26.66
2018-06-16T16:10:33.346Z,26.58
2018-06-16T16:15:27.898Z,26.74
2018-06-16T16:20:22.456Z,26.42
2018-06-16T16:25:17.023Z,26.19
2018-06-16T16:30:11.600Z,26.45
2018-06-16T16:35:06.235Z,26.64
2018-06-16T16:40:00.844Z,26.42
2018-06-16T16:44:55.454Z,26.33
2018-06-16T16:49:50.062Z,25.93
2018-06-16T16:54:44.658Z,25.90
2018-06-16T16:59:39.657Z,25.60
2018-06-16T17:04:33.923Z,25.62
2018-06-16T17:09:28.631Z,25.41
2018-06-16T17:14:23.247Z,25.31
2018-06-16T17:19:17.916Z,25.27
2018-06-16T17:24:12.559Z,24.95
2018-06-16T17:29:07.163Z,24.85
2018-06-16T17:34:01.823Z,24.70
2018-06-16T17:38:56.438Z,24.52
2018-06-16T17:43:51.319Z,24.26
2018-06-16T17:48:45.933Z,24.18
2018-06-16T17:53:40.515Z,24.18
2018-06-16T18:03:28.000Z,24.11
2018-06-16T18:08:22.635Z,23.91
2018-06-16T18:13:16.907Z,23.73
2018-06-16T18:18:11.467Z,23.46
2018-06-16T18:23:06.163Z,23.26
2018-06-16T18:28:00.791Z,22.97
2018-06-16T18:32:55.387Z,22.73
2018-06-16T18:37:50.015Z,22.59
2018-06-16T18:42:44.569Z,22.37
2018-06-16T18:47:39.446Z,22.36
2018-06-16T18:52:34.043Z,22.32
2018-06-16T18:57:28.706Z,22.27
2018-06-16T19:02:23.387Z,22.22
2018-06-16T19:07:18.085Z,22.39
2018-06-16T19:12:12.700Z,22.36
2018-06-16T19:17:07.387Z,22.17
2018-06-16T19:22:02.016Z,22.06
2018-06-16T19:26:57.171Z,22.03
2018-06-16T19:31:52.595Z,21.92
2018-06-16T19:36:46.922Z,21.82
2018-06-16T19:41:41.631Z,21.77
2018-06-16T19:46:36.447Z,21.60
2018-06-16T19:51:31.133Z,21.54
2018-06-16T19:56:25.777Z,21.58
2018-06-16T20:01:20.469Z,21.56
2018-06-16T20:06:15.310Z,21.68
2018-06-16T20:11:10.025Z,21.54
2018-06-16T20:16:04.722Z,21.58
2018-06-16T20:20:59.334Z,21.47
2018-06-16T20:25:53.988Z,21.53
2018-06-16T20:30:48.646Z,21.46
2018-06-16T20:35:43.307Z,21.38
2018-06-16T20:40:38.019Z,21.37
2018-06-16T20:45:34.496Z,21.40
2018-06-16T20:50:31.743Z,21.39
2018-06-16T20:55:26.058Z,21.31
2018-06-16T21:00:21.075Z,21.21
2018-06-16T21:05:15.770Z,21.23
2018-06-16T21:10:10.446Z,21.05
2018-06-16T21:15:05.214Z,21.20
2018-06-16T21:19:59.852Z,21.05
2018-06-16T21:24:54.909Z,20.97
2018-06-16T21:29:49.563Z,21.11
2018-06-16T21:34:44.234Z,21.02
2018-06-16T21:39:38.500Z,20.97
2018-06-16T21:44:33.094Z,20.81
2018-06-16T21:49:27.728Z,20.81
2018-06-16T21:54:22.392Z,20.62
2018-06-16T21:59:16.968Z,20.50
2018-06-16T22:04:11.722Z,20.35
2018-06-16T22:09:10.019Z,20.21
2018-06-16T22:14:04.687Z,20.19
2018-06-16T22:18:59.321Z,20.05
2018-06-16T22:23:53.916Z,20.01
2018-06-16T22:28:48.486Z,20.01
2018-06-16T22:33:43.118Z,19.66
2018-06-16T22:38:37.775Z,19.56
2018-06-16T22:43:32.403Z,19.47
2018-06-16T22:48:26.998Z,19.40
2018-06-16T22:53:21.663Z,19.58
2018-06-16T22:58:16.302Z,19.42
2018-06-16T23:03:10.890Z,19.23
2018-06-16T23:08:05.728Z,19.17
2018-06-16T23:13:00.383Z,19.37
2018-06-16T23:17:54.749Z,19.29
2018-06-16T23:22:49.315Z,19.16
2018-06-16T23:27:44.023Z,19.17
2018-06-16T23:32:38.642Z,19.00
2018-06-16T23:37:33.253Z,18.98
2018-06-16T23:42:27.912Z,18.91
2018-06-16T23:47:22.476Z,18.74
2018-06-16T23:52:17.103Z,18.81
2018-06-16T23:57:11.758Z,18.71
